Felipe Yofre, Argentina
Current Conditions -  °F | °C
As of 3:00 PM on Friday 21 Nov 2014 (Local Time) from SARL Reporting Station
Broken Clouds Broken Clouds  
Wind Chill: 73°   Ceiling: 10000
Heat Index: 73°   Visibility: 6mi
Dew Point: 64°   Wind: 12mph
Humidity: 73%   Direction: 230°SW
Pressure: 29.71"   Gusts: NA
Location:  29.1°S, 58.33°W
Report Text: SARL 211800Z 23010KT 9999 FEW018 BKN10023/18 Q1006
Loading
Personal Weather Stations






























Interactive Weather Map New forecast layout! Learn more

10-Day Weather Forecast

Advertisements
Track Severe Weather on mobile